sensor_id;sensor_type;location;lat;lon;timestamp;temperature;humidity
72277;SHT30;61204;49.980;8.358;2022-09-21T00:01:25;7.86;92.53
72277;SHT30;61204;49.980;8.358;2022-09-21T00:03:56;7.87;92.91
72277;SHT30;61204;49.980;8.358;2022-09-21T00:06:27;7.86;92.82
72277;SHT30;61204;49.980;8.358;2022-09-21T00:08:57;7.85;92.95
72277;SHT30;61204;49.980;8.358;2022-09-21T00:11:29;7.80;93.01
72277;SHT30;61204;49.980;8.358;2022-09-21T00:14:00;7.77;93.13
72277;SHT30;61204;49.980;8.358;2022-09-21T00:16:31;7.75;93.33
72277;SHT30;61204;49.980;8.358;2022-09-21T00:18:57;7.73;93.29
72277;SHT30;61204;49.980;8.358;2022-09-21T00:21:23;7.65;93.43
72277;SHT30;61204;49.980;8.358;2022-09-21T00:23:50;7.62;93.54
72277;SHT30;61204;49.980;8.358;2022-09-21T00:26:20;7.62;93.84
72277;SHT30;61204;49.980;8.358;2022-09-21T00:28:54;7.56;93.80
72277;SHT30;61204;49.980;8.358;2022-09-21T00:31:25;7.54;93.97
72277;SHT30;61204;49.980;8.358;2022-09-21T00:33:53;7.48;94.05
72277;SHT30;61204;49.980;8.358;2022-09-21T00:36:22;7.45;94.26
72277;SHT30;61204;49.980;8.358;2022-09-21T00:38:55;7.61;95.13
72277;SHT30;61204;49.980;8.358;2022-09-21T00:41:24;7.61;95.08
72277;SHT30;61204;49.980;8.358;2022-09-21T00:47:05;7.40;95.02
72277;SHT30;61204;49.980;8.358;2022-09-21T00:49:42;7.32;95.04
72277;SHT30;61204;49.980;8.358;2022-09-21T00:52:17;7.27;94.96
72277;SHT30;61204;49.980;8.358;2022-09-21T00:54:57;7.21;95.07
72277;SHT30;61204;49.980;8.358;2022-09-21T00:57:29;7.28;95.61
72277;SHT30;61204;49.980;8.358;2022-09-21T01:00:04;7.32;95.66
72277;SHT30;61204;49.980;8.358;2022-09-21T01:02:36;7.23;95.57
72277;SHT30;61204;49.980;8.358;2022-09-21T01:05:11;7.15;95.58
72277;SHT30;61204;49.980;8.358;2022-09-21T01:07:43;7.11;95.70
72277;SHT30;61204;49.980;8.358;2022-09-21T01:10:17;7.11;95.73
72277;SHT30;61204;49.980;8.358;2022-09-21T01:26:30;6.97;96.29
72277;SHT30;61204;49.980;8.358;2022-09-21T01:29:39;6.90;96.34
72277;SHT30;61204;49.980;8.358;2022-09-21T01:32:38;6.85;96.31
72277;SHT30;61204;49.980;8.358;2022-09-21T01:35:25;6.82;96.28
72277;SHT30;61204;49.980;8.358;2022-09-21T01:38:04;6.85;96.24
72277;SHT30;61204;49.980;8.358;2022-09-21T01:40:58;6.76;96.27
72277;SHT30;61204;49.980;8.358;2022-09-21T01:43:43;6.75;96.34
72277;SHT30;61204;49.980;8.358;2022-09-21T01:46:17;6.71;96.34
72277;SHT30;61204;49.980;8.358;2022-09-21T01:48:52;6.68;96.37
72277;SHT30;61204;49.980;8.358;2022-09-21T01:51:26;6.64;96.38
72277;SHT30;61204;49.980;8.358;2022-09-21T01:54:00;6.62;96.53
72277;SHT30;61204;49.980;8.358;2022-09-21T01:56:42;6.64;96.62
72277;SHT30;61204;49.980;8.358;2022-09-21T02:02:04;6.61;96.70
72277;SHT30;61204;49.980;8.358;2022-09-21T02:04:38;6.58;96.74
72277;SHT30;61204;49.980;8.358;2022-09-21T02:07:05;6.53;96.73
72277;SHT30;61204;49.980;8.358;2022-09-21T02:09:35;6.51;96.80
72277;SHT30;61204;49.980;8.358;2022-09-21T02:12:04;6.51;96.79
72277;SHT30;61204;49.980;8.358;2022-09-21T02:14:31;6.61;97.23
72277;SHT30;61204;49.980;8.358;2022-09-21T02:20:31;6.59;97.09
72277;SHT30;61204;49.980;8.358;2022-09-21T02:23:17;6.53;97.05
72277;SHT30;61204;49.980;8.358;2022-09-21T02:26:04;6.52;97.09
72277;SHT30;61204;49.980;8.358;2022-09-21T02:28:42;6.53;97.37
72277;SHT30;61204;49.980;8.358;2022-09-21T02:31:36;6.56;97.50
72277;SHT30;61204;49.980;8.358;2022-09-21T02:34:51;6.61;97.52
72277;SHT30;61204;49.980;8.358;2022-09-21T02:37:45;6.62;97.58
72277;SHT30;61204;49.980;8.358;2022-09-21T02:40:29;6.55;97.57
72277;SHT30;61204;49.980;8.358;2022-09-21T02:43:10;6.49;97.44
72277;SHT30;61204;49.980;8.358;2022-09-21T02:46:04;6.41;97.43
72277;SHT30;61204;49.980;8.358;2022-09-21T02:48:42;6.31;97.42
72277;SHT30;61204;49.980;8.358;2022-09-21T02:51:18;6.28;97.68
72277;SHT30;61204;49.980;8.358;2022-09-21T02:53:53;6.23;97.61
72277;SHT30;61204;49.980;8.358;2022-09-21T02:56:20;6.18;97.59
72277;SHT30;61204;49.980;8.358;2022-09-21T02:58:53;6.11;97.66
72277;SHT30;61204;49.980;8.358;2022-09-21T03:01:24;6.04;97.69
72277;SHT30;61204;49.980;8.358;2022-09-21T03:03:50;6.04;97.67
72277;SHT30;61204;49.980;8.358;2022-09-21T03:06:16;6.02;97.78
72277;SHT30;61204;49.980;8.358;2022-09-21T03:08:43;6.00;97.77
72277;SHT30;61204;49.980;8.358;2022-09-21T03:11:09;6.04;97.92
72277;SHT30;61204;49.980;8.358;2022-09-21T03:13:36;6.02;98.00
72277;SHT30;61204;49.980;8.358;2022-09-21T03:16:06;6.16;98.31
72277;SHT30;61204;49.980;8.358;2022-09-21T03:18:32;6.04;98.14
72277;SHT30;61204;49.980;8.358;2022-09-21T03:21:01;5.97;98.15
72277;SHT30;61204;49.980;8.358;2022-09-21T03:23:31;5.96;98.23
72277;SHT30;61204;49.980;8.358;2022-09-21T03:25:58;5.95;98.23
72277;SHT30;61204;49.980;8.358;2022-09-21T03:28:28;5.89;98.20
72277;SHT30;61204;49.980;8.358;2022-09-21T03:30:59;5.82;98.15
72277;SHT30;61204;49.980;8.358;2022-09-21T03:33:26;5.78;98.18
72277;SHT30;61204;49.980;8.358;2022-09-21T03:35:56;5.76;98.21
72277;SHT30;61204;49.980;8.358;2022-09-21T03:38:24;5.75;98.29
72277;SHT30;61204;49.980;8.358;2022-09-21T03:40:55;5.75;98.26
72277;SHT30;61204;49.980;8.358;2022-09-21T03:43:55;5.70;98.28
72277;SHT30;61204;49.980;8.358;2022-09-21T03:46:57;5.73;98.33
72277;SHT30;61204;49.980;8.358;2022-09-21T03:49:33;5.66;98.27
72277;SHT30;61204;49.980;8.358;2022-09-21T03:51:59;5.68;98.39
72277;SHT30;61204;49.980;8.358;2022-09-21T03:54:26;5.68;98.35
72277;SHT30;61204;49.980;8.358;2022-09-21T03:56:54;5.66;98.41
72277;SHT30;61204;49.980;8.358;2022-09-21T03:59:19;5.68;98.50
72277;SHT30;61204;49.980;8.358;2022-09-21T04:01:48;5.69;98.45
72277;SHT30;61204;49.980;8.358;2022-09-21T04:04:14;5.82;98.73
72277;SHT30;61204;49.980;8.358;2022-09-21T04:06:42;5.79;98.64
72277;SHT30;61204;49.980;8.358;2022-09-21T04:09:11;5.75;98.59
72277;SHT30;61204;49.980;8.358;2022-09-21T04:11:37;5.80;98.86
72277;SHT30;61204;49.980;8.358;2022-09-21T04:14:03;6.00;99.09
72277;SHT30;61204;49.980;8.358;2022-09-21T04:16:32;6.13;99.18
72277;SHT30;61204;49.980;8.358;2022-09-21T04:18:58;6.25;99.22
72277;SHT30;61204;49.980;8.358;2022-09-21T04:21:28;6.13;98.99
72277;SHT30;61204;49.980;8.358;2022-09-21T04:23:55;5.99;98.95
72277;SHT30;61204;49.980;8.358;2022-09-21T04:26:30;5.92;98.99
72277;SHT30;61204;49.980;8.358;2022-09-21T04:28:59;5.83;99.01
72277;SHT30;61204;49.980;8.358;2022-09-21T04:31:28;5.76;99.01
72277;SHT30;61204;49.980;8.358;2022-09-21T04:33:56;5.68;99.08
72277;SHT30;61204;49.980;8.358;2022-09-21T04:36:24;5.66;99.11
72277;SHT30;61204;49.980;8.358;2022-09-21T04:38:52;5.66;99.17
72277;SHT30;61204;49.980;8.358;2022-09-21T04:41:19;5.65;99.15
72277;SHT30;61204;49.980;8.358;2022-09-21T04:43:47;5.62;99.16
72277;SHT30;61204;49.980;8.358;2022-09-21T04:46:16;5.70;99.39
72277;SHT30;61204;49.980;8.358;2022-09-21T04:48:45;5.63;99.33
72277;SHT30;61204;49.980;8.358;2022-09-21T04:51:16;5.69;99.36
72277;SHT30;61204;49.980;8.358;2022-09-21T04:53:45;5.60;99.34
72277;SHT30;61204;49.980;8.358;2022-09-21T04:56:15;5.56;99.27
72277;SHT30;61204;49.980;8.358;2022-09-21T04:58:47;5.52;99.38
72277;SHT30;61204;49.980;8.358;2022-09-21T05:01:19;5.48;99.31
72277;SHT30;61204;49.980;8.358;2022-09-21T05:04:17;5.45;99.41
72277;SHT30;61204;49.980;8.358;2022-09-21T05:07:07;5.44;99.44
72277;SHT30;61204;49.980;8.358;2022-09-21T05:09:40;5.41;99.43
72277;SHT30;61204;49.980;8.358;2022-09-21T05:12:59;5.44;99.49
72277;SHT30;61204;49.980;8.358;2022-09-21T05:16:35;5.44;99.53
72277;SHT30;61204;49.980;8.358;2022-09-21T05:19:54;5.44;99.52
72277;SHT30;61204;49.980;8.358;2022-09-21T05:24:21;5.56;99.61
72277;SHT30;61204;49.980;8.358;2022-09-21T05:27:47;5.95;99.78
72277;SHT30;61204;49.980;8.358;2022-09-21T05:30:13;6.27;99.81
72277;SHT30;61204;49.980;8.358;2022-09-21T05:32:48;6.53;99.72
72277;SHT30;61204;49.980;8.358;2022-09-21T05:38:16;6.97;99.34
72277;SHT30;61204;49.980;8.358;2022-09-21T05:40:44;7.23;99.28
72277;SHT30;61204;49.980;8.358;2022-09-21T05:43:12;7.48;99.20
72277;SHT30;61204;49.980;8.358;2022-09-21T05:45:45;7.76;99.12
72277;SHT30;61204;49.980;8.358;2022-09-21T05:48:20;7.97;98.76
72277;SHT30;61204;49.980;8.358;2022-09-21T05:54:44;8.18;96.40
72277;SHT30;61204;49.980;8.358;2022-09-21T06:00:24;8.38;93.89
72277;SHT30;61204;49.980;8.358;2022-09-21T06:03:29;8.46;92.12
72277;SHT30;61204;49.980;8.358;2022-09-21T06:05:57;8.58;92.06
72277;SHT30;61204;49.980;8.358;2022-09-21T06:08:25;8.84;91.86
72277;SHT30;61204;49.980;8.358;2022-09-21T06:10:51;9.03;91.18
72277;SHT30;61204;49.980;8.358;2022-09-21T06:13:18;9.34;90.17
72277;SHT30;61204;49.980;8.358;2022-09-21T06:15:44;9.42;88.71
72277;SHT30;61204;49.980;8.358;2022-09-21T06:18:10;9.75;88.28
72277;SHT30;61204;49.980;8.358;2022-09-21T06:20:39;10.00;87.70
72277;SHT30;61204;49.980;8.358;2022-09-21T06:23:11;10.37;87.01
72277;SHT30;61204;49.980;8.358;2022-09-21T06:25:38;10.69;87.04
72277;SHT30;61204;49.980;8.358;2022-09-21T06:28:08;10.59;84.15
72277;SHT30;61204;49.980;8.358;2022-09-21T06:30:38;10.55;85.20
72277;SHT30;61204;49.980;8.358;2022-09-21T06:33:07;10.52;83.73
72277;SHT30;61204;49.980;8.358;2022-09-21T06:35:37;10.80;84.78
72277;SHT30;61204;49.980;8.358;2022-09-21T06:38:07;11.28;84.33
72277;SHT30;61204;49.980;8.358;2022-09-21T06:40:35;11.67;83.58
72277;SHT30;61204;49.980;8.358;2022-09-21T06:43:04;11.91;81.26
72277;SHT30;61204;49.980;8.358;2022-09-21T06:45:33;12.08;79.86
72277;SHT30;61204;49.980;8.358;2022-09-21T06:47:58;12.39;82.04
72277;SHT30;61204;49.980;8.358;2022-09-21T06:50:24;13.12;78.94
72277;SHT30;61204;49.980;8.358;2022-09-21T06:52:50;13.31;77.22
72277;SHT30;61204;49.980;8.358;2022-09-21T06:55:15;13.59;74.94
72277;SHT30;61204;49.980;8.358;2022-09-21T06:57:41;13.93;76.27
72277;SHT30;61204;49.980;8.358;2022-09-21T07:00:11;14.25;73.17
72277;SHT30;61204;49.980;8.358;2022-09-21T07:02:44;14.38;72.77
72277;SHT30;61204;49.980;8.358;2022-09-21T07:05:12;14.72;71.83
72277;SHT30;61204;49.980;8.358;2022-09-21T07:07:38;15.24;69.16
72277;SHT30;61204;49.980;8.358;2022-09-21T07:10:05;15.28;68.26
72277;SHT30;61204;49.980;8.358;2022-09-21T07:12:32;15.48;68.27
72277;SHT30;61204;49.980;8.358;2022-09-21T07:15:00;15.65;66.95
72277;SHT30;61204;49.980;8.358;2022-09-21T07:17:37;15.96;68.01
72277;SHT30;61204;49.980;8.358;2022-09-21T07:20:05;16.27;64.45
72277;SHT30;61204;49.980;8.358;2022-09-21T07:22:33;16.28;63.37
72277;SHT30;61204;49.980;8.358;2022-09-21T07:24:59;16.21;63.75
72277;SHT30;61204;49.980;8.358;2022-09-21T07:27:28;16.65;66.09
72277;SHT30;61204;49.980;8.358;2022-09-21T07:29:55;17.16;61.46
72277;SHT30;61204;49.980;8.358;2022-09-21T07:32:21;17.00;60.68
72277;SHT30;61204;49.980;8.358;2022-09-21T07:34:46;16.54;61.60
72277;SHT30;61204;49.980;8.358;2022-09-21T07:37:13;16.49;61.32
72277;SHT30;61204;49.980;8.358;2022-09-21T07:39:39;16.77;61.19
72277;SHT30;61204;49.980;8.358;2022-09-21T07:42:05;17.10;60.65
72277;SHT30;61204;49.980;8.358;2022-09-21T07:44:31;17.11;62.08
72277;SHT30;61204;49.980;8.358;2022-09-21T07:46:58;16.94;59.86
72277;SHT30;61204;49.980;8.358;2022-09-21T07:49:25;17.59;60.95
72277;SHT30;61204;49.980;8.358;2022-09-21T07:51:50;17.89;59.07
72277;SHT30;61204;49.980;8.358;2022-09-21T07:54:16;17.82;57.07
72277;SHT30;61204;49.980;8.358;2022-09-21T07:56:42;17.87;57.53
72277;SHT30;61204;49.980;8.358;2022-09-21T07:59:27;18.11;57.31
72277;SHT30;61204;49.980;8.358;2022-09-21T08:01:56;17.45;57.13
72277;SHT30;61204;49.980;8.358;2022-09-21T08:04:22;18.45;55.97
72277;SHT30;61204;49.980;8.358;2022-09-21T08:06:48;18.20;55.46
72277;SHT30;61204;49.980;8.358;2022-09-21T08:09:13;18.20;55.21
72277;SHT30;61204;49.980;8.358;2022-09-21T08:11:39;18.31;55.33
72277;SHT30;61204;49.980;8.358;2022-09-21T08:14:09;18.83;54.73
72277;SHT30;61204;49.980;8.358;2022-09-21T08:16:44;19.02;54.04
72277;SHT30;61204;49.980;8.358;2022-09-21T08:19:12;18.72;53.92
72277;SHT30;61204;49.980;8.358;2022-09-21T08:21:38;19.13;54.21
72277;SHT30;61204;49.980;8.358;2022-09-21T08:24:04;19.02;55.22
72277;SHT30;61204;49.980;8.358;2022-09-21T08:26:30;19.50;52.38
72277;SHT30;61204;49.980;8.358;2022-09-21T08:28:56;19.72;52.27
72277;SHT30;61204;49.980;8.358;2022-09-21T08:31:23;19.32;52.59
72277;SHT30;61204;49.980;8.358;2022-09-21T08:33:54;19.94;51.81
72277;SHT30;61204;49.980;8.358;2022-09-21T08:36:21;19.86;51.61
72277;SHT30;61204;49.980;8.358;2022-09-21T08:38:46;19.70;51.49
72277;SHT30;61204;49.980;8.358;2022-09-21T08:44:23;20.20;50.95
72277;SHT30;61204;49.980;8.358;2022-09-21T08:47:14;20.68;49.13
72277;SHT30;61204;49.980;8.358;2022-09-21T08:49:57;20.21;48.91
72277;SHT30;61204;49.980;8.358;2022-09-21T08:52:26;20.79;48.97
72277;SHT30;61204;49.980;8.358;2022-09-21T08:55:02;21.32;47.18
72277;SHT30;61204;49.980;8.358;2022-09-21T08:57:34;21.72;45.93
72277;SHT30;61204;49.980;8.358;2022-09-21T09:00:01;21.11;46.85
72277;SHT30;61204;49.980;8.358;2022-09-21T09:03:04;21.41;46.63
72277;SHT30;61204;49.980;8.358;2022-09-21T09:06:09;21.65;45.95
72277;SHT30;61204;49.980;8.358;2022-09-21T09:15:36;19.68;49.99
72277;SHT30;61204;49.980;8.358;2022-09-21T09:18:45;20.20;48.82
72277;SHT30;61204;49.980;8.358;2022-09-21T09:21:34;21.19;48.06
72277;SHT30;61204;49.980;8.358;2022-09-21T09:24:37;21.99;44.69
72277;SHT30;61204;49.980;8.358;2022-09-21T09:30:05;22.99;42.76
72277;SHT30;61204;49.980;8.358;2022-09-21T09:33:19;21.71;43.83
72277;SHT30;61204;49.980;8.358;2022-09-21T09:36:02;21.55;44.61
72277;SHT30;61204;49.980;8.358;2022-09-21T09:38:37;21.75;43.97
72277;SHT30;61204;49.980;8.358;2022-09-21T09:51:10;23.96;40.06
72277;SHT30;61204;49.980;8.358;2022-09-21T09:53:37;23.79;40.47
72277;SHT30;61204;49.980;8.358;2022-09-21T09:56:05;23.86;40.28
72277;SHT30;61204;49.980;8.358;2022-09-21T09:58:51;23.72;40.00
72277;SHT30;61204;49.980;8.358;2022-09-21T10:01:42;24.12;39.63
72277;SHT30;61204;49.980;8.358;2022-09-21T10:04:22;24.46;38.97
72277;SHT30;61204;49.980;8.358;2022-09-21T10:06:47;24.71;38.86
72277;SHT30;61204;49.980;8.358;2022-09-21T10:09:30;25.30;37.01
72277;SHT30;61204;49.980;8.358;2022-09-21T10:12:14;24.48;38.88
72277;SHT30;61204;49.980;8.358;2022-09-21T10:14:51;25.16;37.52
72277;SHT30;61204;49.980;8.358;2022-09-21T10:17:20;25.23;36.66
72277;SHT30;61204;49.980;8.358;2022-09-21T10:19:47;25.12;36.95
72277;SHT30;61204;49.980;8.358;2022-09-21T10:22:21;24.33;38.21
72277;SHT30;61204;49.980;8.358;2022-09-21T10:24:52;24.53;37.85
72277;SHT30;61204;49.980;8.358;2022-09-21T10:27:32;24.40;38.15
72277;SHT30;61204;49.980;8.358;2022-09-21T10:29:59;24.61;37.81
72277;SHT30;61204;49.980;8.358;2022-09-21T10:32:29;24.88;37.57
72277;SHT30;61204;49.980;8.358;2022-09-21T10:37:35;22.04;41.68
72277;SHT30;61204;49.980;8.358;2022-09-21T10:40:26;23.28;39.79
72277;SHT30;61204;49.980;8.358;2022-09-21T10:42:57;23.57;39.64
72277;SHT30;61204;49.980;8.358;2022-09-21T10:45:30;24.19;38.43
72277;SHT30;61204;49.980;8.358;2022-09-21T10:48:15;24.63;37.13
72277;SHT30;61204;49.980;8.358;2022-09-21T10:50:48;24.88;37.29
72277;SHT30;61204;49.980;8.358;2022-09-21T10:53:27;24.64;37.35
72277;SHT30;61204;49.980;8.358;2022-09-21T10:56:14;25.40;35.97
72277;SHT30;61204;49.980;8.358;2022-09-21T10:59:23;25.50;35.41
72277;SHT30;61204;49.980;8.358;2022-09-21T11:01:54;25.54;35.16
72277;SHT30;61204;49.980;8.358;2022-09-21T11:04:41;23.78;37.61
72277;SHT30;61204;49.980;8.358;2022-09-21T11:07:34;24.23;35.67
72277;SHT30;61204;49.980;8.358;2022-09-21T11:10:17;23.88;36.68
72277;SHT30;61204;49.980;8.358;2022-09-21T12:33:36;27.00;30.56
72277;SHT30;61204;49.980;8.358;2022-09-21T12:36:45;28.06;29.19
72277;SHT30;61204;49.980;8.358;2022-09-21T12:42:43;28.31;29.67
72277;SHT30;61204;49.980;8.358;2022-09-21T12:48:55;26.41;27.84
72277;SHT30;61204;49.980;8.358;2022-09-21T12:51:33;27.03;27.50
72277;SHT30;61204;49.980;8.358;2022-09-21T12:57:44;26.61;29.06
72277;SHT30;61204;49.980;8.358;2022-09-21T13:00:18;27.17;29.44
72277;SHT30;61204;49.980;8.358;2022-09-21T13:08:14;27.32;29.02
72277;SHT30;61204;49.980;8.358;2022-09-21T13:13:44;27.37;29.47
72277;SHT30;61204;49.980;8.358;2022-09-21T13:16:32;28.70;28.09
72277;SHT30;61204;49.980;8.358;2022-09-21T13:19:32;28.94;27.62
72277;SHT30;61204;49.980;8.358;2022-09-21T13:25:00;27.40;29.10
72277;SHT30;61204;49.980;8.358;2022-09-21T13:28:07;27.54;29.23
72277;SHT30;61204;49.980;8.358;2022-09-21T13:35:59;26.39;31.19
72277;SHT30;61204;49.980;8.358;2022-09-21T13:41:23;26.55;30.67
72277;SHT30;61204;49.980;8.358;2022-09-21T13:46:45;27.95;28.31
72277;SHT30;61204;49.980;8.358;2022-09-21T13:49:26;26.64;29.35
72277;SHT30;61204;49.980;8.358;2022-09-21T13:52:03;26.00;30.32
72277;SHT30;61204;49.980;8.358;2022-09-21T13:58:02;27.49;29.46
72277;SHT30;61204;49.980;8.358;2022-09-21T14:00:35;27.17;29.91
72277;SHT30;61204;49.980;8.358;2022-09-21T14:03:23;26.19;31.42
72277;SHT30;61204;49.980;8.358;2022-09-21T14:06:17;26.12;31.23
72277;SHT30;61204;49.980;8.358;2022-09-21T14:09:05;26.98;30.56
72277;SHT30;61204;49.980;8.358;2022-09-21T14:11:43;27.19;30.14
72277;SHT30;61204;49.980;8.358;2022-09-21T14:15:31;27.02;30.16
72277;SHT30;61204;49.980;8.358;2022-09-21T14:18:35;27.23;29.85
72277;SHT30;61204;49.980;8.358;2022-09-21T14:24:24;25.33;31.44
72277;SHT30;61204;49.980;8.358;2022-09-21T14:27:32;26.03;30.67
72277;SHT30;61204;49.980;8.358;2022-09-21T14:30:18;25.57;31.67
72277;SHT30;61204;49.980;8.358;2022-09-21T14:35:31;25.05;31.61
72277;SHT30;61204;49.980;8.358;2022-09-21T14:38:28;24.89;31.71
72277;SHT30;61204;49.980;8.358;2022-09-21T14:41:07;24.76;32.26
72277;SHT30;61204;49.980;8.358;2022-09-21T14:43:50;24.81;32.22
72277;SHT30;61204;49.980;8.358;2022-09-21T14:59:46;23.30;34.42
72277;SHT30;61204;49.980;8.358;2022-09-21T15:02:43;24.02;33.70
72277;SHT30;61204;49.980;8.358;2022-09-21T15:05:55;23.72;33.65
72277;SHT30;61204;49.980;8.358;2022-09-21T15:13:39;22.95;33.54
72277;SHT30;61204;49.980;8.358;2022-09-21T15:16:46;23.13;34.09
72277;SHT30;61204;49.980;8.358;2022-09-21T15:19:21;21.95;37.86
72277;SHT30;61204;49.980;8.358;2022-09-21T15:21:54;21.71;38.53
72277;SHT30;61204;49.980;8.358;2022-09-21T15:24:28;21.92;38.76
72277;SHT30;61204;49.980;8.358;2022-09-21T15:27:14;20.42;41.98
72277;SHT30;61204;49.980;8.358;2022-09-21T15:29:50;20.31;42.70
72277;SHT30;61204;49.980;8.358;2022-09-21T15:32:46;20.38;42.95
72277;SHT30;61204;49.980;8.358;2022-09-21T15:35:26;19.48;44.55
72277;SHT30;61204;49.980;8.358;2022-09-21T15:37:56;19.32;45.71
72277;SHT30;61204;49.980;8.358;2022-09-21T15:40:31;19.38;44.69
72277;SHT30;61204;49.980;8.358;2022-09-21T15:43:15;19.45;45.95
72277;SHT30;61204;49.980;8.358;2022-09-21T15:45:56;19.78;44.93
72277;SHT30;61204;49.980;8.358;2022-09-21T15:48:35;19.68;44.83
72277;SHT30;61204;49.980;8.358;2022-09-21T15:51:28;20.21;44.40
72277;SHT30;61204;49.980;8.358;2022-09-21T15:54:27;20.48;43.38
72277;SHT30;61204;49.980;8.358;2022-09-21T15:57:03;19.92;44.32
72277;SHT30;61204;49.980;8.358;2022-09-21T15:59:33;19.50;44.53
72277;SHT30;61204;49.980;8.358;2022-09-21T16:02:10;19.11;45.53
72277;SHT30;61204;49.980;8.358;2022-09-21T16:04:45;19.20;45.45
72277;SHT30;61204;49.980;8.358;2022-09-21T16:07:36;19.06;45.43
72277;SHT30;61204;49.980;8.358;2022-09-21T16:10:36;18.61;46.55
72277;SHT30;61204;49.980;8.358;2022-09-21T16:13:19;18.68;46.95
72277;SHT30;61204;49.980;8.358;2022-09-21T16:16:15;18.86;45.56
72277;SHT30;61204;49.980;8.358;2022-09-21T16:18:54;18.34;45.01
72277;SHT30;61204;49.980;8.358;2022-09-21T16:21:35;18.59;44.20
72277;SHT30;61204;49.980;8.358;2022-09-21T16:24:18;18.59;43.04
72277;SHT30;61204;49.980;8.358;2022-09-21T16:26:59;18.33;42.86
72277;SHT30;61204;49.980;8.358;2022-09-21T16:29:39;18.27;44.29
72277;SHT30;61204;49.980;8.358;2022-09-21T16:34:49;17.86;44.97
72277;SHT30;61204;49.980;8.358;2022-09-21T16:37:26;17.76;45.82
72277;SHT30;61204;49.980;8.358;2022-09-21T16:39:58;17.45;47.80
72277;SHT30;61204;49.980;8.358;2022-09-21T16:42:27;17.35;48.47
72277;SHT30;61204;49.980;8.358;2022-09-21T16:44:57;17.25;49.55
72277;SHT30;61204;49.980;8.358;2022-09-21T16:47:27;17.08;50.26
72277;SHT30;61204;49.980;8.358;2022-09-21T16:49:56;16.86;50.92
72277;SHT30;61204;49.980;8.358;2022-09-21T16:52:27;16.79;51.82
72277;SHT30;61204;49.980;8.358;2022-09-21T16:54:59;16.65;51.60
72277;SHT30;61204;49.980;8.358;2022-09-21T16:57:25;16.58;52.33
72277;SHT30;61204;49.980;8.358;2022-09-21T16:59:51;16.47;52.99
72277;SHT30;61204;49.980;8.358;2022-09-21T17:02:17;16.37;52.99
72277;SHT30;61204;49.980;8.358;2022-09-21T17:04:43;16.25;53.29
72277;SHT30;61204;49.980;8.358;2022-09-21T17:07:11;16.18;53.62
72277;SHT30;61204;49.980;8.358;2022-09-21T17:09:42;16.13;53.90
72277;SHT30;61204;49.980;8.358;2022-09-21T17:12:16;16.01;54.30
72277;SHT30;61204;49.980;8.358;2022-09-21T17:14:42;15.94;54.13
72277;SHT30;61204;49.980;8.358;2022-09-21T17:17:27;15.89;54.74
72277;SHT30;61204;49.980;8.358;2022-09-21T17:19:53;15.85;54.93
72277;SHT30;61204;49.980;8.358;2022-09-21T17:22:19;15.76;54.92
72277;SHT30;61204;49.980;8.358;2022-09-21T17:24:48;15.67;55.41
72277;SHT30;61204;49.980;8.358;2022-09-21T17:27:20;15.61;55.45
72277;SHT30;61204;49.980;8.358;2022-09-21T17:29:49;15.52;56.09
72277;SHT30;61204;49.980;8.358;2022-09-21T17:32:21;15.42;56.26
72277;SHT30;61204;49.980;8.358;2022-09-21T17:34:56;15.37;56.38
72277;SHT30;61204;49.980;8.358;2022-09-21T17:37:24;15.31;56.86
72277;SHT30;61204;49.980;8.358;2022-09-21T17:39:52;15.21;57.00
72277;SHT30;61204;49.980;8.358;2022-09-21T17:42:20;15.16;57.52
72277;SHT30;61204;49.980;8.358;2022-09-21T17:44:53;15.04;57.93
72277;SHT30;61204;49.980;8.358;2022-09-21T17:47:25;14.94;58.63
72277;SHT30;61204;49.980;8.358;2022-09-21T17:50:07;14.84;59.59
72277;SHT30;61204;49.980;8.358;2022-09-21T17:52:42;14.72;60.15
72277;SHT30;61204;49.980;8.358;2022-09-21T17:55:28;14.65;60.36
72277;SHT30;61204;49.980;8.358;2022-09-21T17:58:09;14.58;60.67
72277;SHT30;61204;49.980;8.358;2022-09-21T18:01:02;14.46;61.23
72277;SHT30;61204;49.980;8.358;2022-09-21T18:03:36;14.42;61.26
72277;SHT30;61204;49.980;8.358;2022-09-21T18:06:07;14.32;61.39
72277;SHT30;61204;49.980;8.358;2022-09-21T18:08:36;14.21;62.95
72277;SHT30;61204;49.980;8.358;2022-09-21T18:15:15;14.00;63.18
72277;SHT30;61204;49.980;8.358;2022-09-21T18:18:06;13.90;64.59
72277;SHT30;61204;49.980;8.358;2022-09-21T18:21:02;13.82;65.48
72277;SHT30;61204;49.980;8.358;2022-09-21T18:23:53;13.75;64.56
72277;SHT30;61204;49.980;8.358;2022-09-21T18:26:31;13.67;66.02
72277;SHT30;61204;49.980;8.358;2022-09-21T18:29:00;13.58;66.09
72277;SHT30;61204;49.980;8.358;2022-09-21T18:41:43;13.18;66.13
72277;SHT30;61204;49.980;8.358;2022-09-21T18:47:21;13.08;66.87
72277;SHT30;61204;49.980;8.358;2022-09-21T18:50:28;13.03;66.90
72277;SHT30;61204;49.980;8.358;2022-09-21T18:53:25;13.04;66.18
72277;SHT30;61204;49.980;8.358;2022-09-21T18:56:02;13.10;65.72
72277;SHT30;61204;49.980;8.358;2022-09-21T18:58:31;13.04;65.61
72277;SHT30;61204;49.980;8.358;2022-09-21T19:00:57;13.03;66.29
72277;SHT30;61204;49.980;8.358;2022-09-21T19:03:28;13.06;65.30
72277;SHT30;61204;49.980;8.358;2022-09-21T19:09:08;13.06;66.12
72277;SHT30;61204;49.980;8.358;2022-09-21T19:11:53;13.00;65.84
72277;SHT30;61204;49.980;8.358;2022-09-21T19:15:22;12.87;67.62
72277;SHT30;61204;49.980;8.358;2022-09-21T19:21:28;12.55;67.63
72277;SHT30;61204;49.980;8.358;2022-09-21T19:27:48;12.69;66.75
72277;SHT30;61204;49.980;8.358;2022-09-21T19:30:20;12.60;67.17
72277;SHT30;61204;49.980;8.358;2022-09-21T19:32:49;12.56;68.90
72277;SHT30;61204;49.980;8.358;2022-09-21T19:35:27;12.46;68.34
72277;SHT30;61204;49.980;8.358;2022-09-21T19:37:57;12.39;69.52
72277;SHT30;61204;49.980;8.358;2022-09-21T19:40:34;12.28;70.10
72277;SHT30;61204;49.980;8.358;2022-09-21T19:46:36;12.01;69.94
72277;SHT30;61204;49.980;8.358;2022-09-21T19:49:16;11.93;70.22
72277;SHT30;61204;49.980;8.358;2022-09-21T19:51:52;12.05;70.18
72277;SHT30;61204;49.980;8.358;2022-09-21T19:54:23;12.05;70.41
72277;SHT30;61204;49.980;8.358;2022-09-21T19:57:16;11.97;70.69
72277;SHT30;61204;49.980;8.358;2022-09-21T20:00:07;11.86;71.44
72277;SHT30;61204;49.980;8.358;2022-09-21T20:02:45;11.73;71.83
72277;SHT30;61204;49.980;8.358;2022-09-21T20:05:31;11.62;72.60
72277;SHT30;61204;49.980;8.358;2022-09-21T20:08:16;11.51;73.46
72277;SHT30;61204;49.980;8.358;2022-09-21T20:11:19;11.42;74.31
72277;SHT30;61204;49.980;8.358;2022-09-21T20:17:01;11.22;75.00
72277;SHT30;61204;49.980;8.358;2022-09-21T20:19:50;11.07;75.52
72277;SHT30;61204;49.980;8.358;2022-09-21T20:22:34;10.94;76.27
72277;SHT30;61204;49.980;8.358;2022-09-21T20:27:46;10.76;78.11
72277;SHT30;61204;49.980;8.358;2022-09-21T20:30:18;10.65;77.99
72277;SHT30;61204;49.980;8.358;2022-09-21T20:32:52;10.56;78.39
72277;SHT30;61204;49.980;8.358;2022-09-21T20:35:24;10.49;78.83